Time;durP1;ratioP1;P1;durP2;ratioP2;P2;SDS_P1;SDS_P2;PMS_P1;PMS_P2;Temp;Humidity;BMP_temperature;BMP_pressure;BME280_temperature;BME280_humidity;BME280_pressure;Samples;Min_cycle;Max_cycle;Signal;HPM_P1;HPM_P2
2023/09/21 00:01:06;;;;;;;456.40;221.90;;;;;;;;;;4977518;28;20194;-75
2023/09/21 00:03:34;;;;;;;468.20;223.47;;;;;;;;;;4976023;28;20277;-76
2023/09/21 00:06:00;;;;;;;472.87;229.67;;;;;;;;;;4970173;28;20217;-76
2023/09/21 00:08:26;;;;;;;458.53;217.70;;;;;;;;;;4978529;28;20692;-76
2023/09/21 00:10:52;;;;;;;448.80;220.60;;;;;;;;;;4957788;28;20209;-75
2023/09/21 00:13:19;;;;;;;444.13;213.23;;;;;;;;;;4976043;28;20256;-75
2023/09/21 00:15:45;;;;;;;483.57;234.50;;;;;;;;;;4957995;28;20283;-76
2023/09/21 00:18:13;;;;;;;437.27;213.30;;;;;;;;;;4977495;28;20217;-76
2023/09/21 00:23:08;;;;;;;442.40;212.53;;;;;;;;;;4976987;28;20213;-76
2023/09/21 00:25:34;;;;;;;471.40;229.37;;;;;;;;;;4959484;28;20237;-75
2023/09/21 00:28:04;;;;;;;450.57;216.47;;;;;;;;;;4962203;28;20361;-75
2023/09/21 00:30:30;;;;;;;461.23;220.43;;;;;;;;;;4977393;28;20656;-76
2023/09/21 00:32:56;;;;;;;441.63;208.17;;;;;;;;;;4974959;28;20281;-75
2023/09/21 00:35:23;;;;;;;445.57;212.90;;;;;;;;;;4975509;28;20252;-75
2023/09/21 00:37:49;;;;;;;455.27;220.97;;;;;;;;;;4975323;28;20218;-76
2023/09/21 00:40:18;;;;;;;445.43;211.27;;;;;;;;;;4976897;28;20305;-76
2023/09/21 00:42:44;;;;;;;474.40;229.83;;;;;;;;;;4972394;28;20251;-75
2023/09/21 00:45:11;;;;;;;457.60;217.77;;;;;;;;;;4958461;28;20312;-76
2023/09/21 00:47:44;;;;;;;451.93;217.00;;;;;;;;;;4958192;28;20220;-75
2023/09/21 00:50:11;;;;;;;438.93;210.30;;;;;;;;;;4953874;28;21831;-76
2023/09/21 00:52:40;;;;;;;457.77;218.50;;;;;;;;;;4958370;28;20248;-75
2023/09/21 00:55:07;;;;;;;442.73;211.13;;;;;;;;;;4974084;28;20221;-75
2023/09/21 00:57:33;;;;;;;455.57;214.70;;;;;;;;;;4975459;28;20552;-75
2023/09/21 00:59:59;;;;;;;460.27;219.43;;;;;;;;;;4960373;28;20218;-75
2023/09/21 01:02:25;;;;;;;453.97;214.27;;;;;;;;;;4975373;28;20221;-75
2023/09/21 01:04:52;;;;;;;464.93;225.50;;;;;;;;;;4958605;28;20316;-76
2023/09/21 01:07:22;;;;;;;451.83;212.83;;;;;;;;;;4957181;28;20210;-75
2023/09/21 01:09:50;;;;;;;450.20;215.67;;;;;;;;;;4972406;28;20218;-76
2023/09/21 01:12:16;;;;;;;439.00;206.77;;;;;;;;;;4960392;28;20245;-75
2023/09/21 01:14:43;;;;;;;449.60;213.47;;;;;;;;;;4972260;28;20301;-75
2023/09/21 01:17:09;;;;;;;460.83;214.23;;;;;;;;;;4964994;28;20228;-75
2023/09/21 01:19:35;;;;;;;463.07;215.97;;;;;;;;;;4972589;28;20220;-76
2023/09/21 01:22:06;;;;;;;452.63;213.97;;;;;;;;;;4954664;28;20251;-76
2023/09/21 01:24:32;;;;;;;454.20;211.90;;;;;;;;;;4977148;28;20214;-76
2023/09/21 01:26:58;;;;;;;451.27;210.20;;;;;;;;;;4977536;28;20217;-75
2023/09/21 01:29:24;;;;;;;433.00;199.00;;;;;;;;;;4961686;28;20221;-75
2023/09/21 01:31:50;;;;;;;464.77;219.10;;;;;;;;;;4977491;28;20310;-75
2023/09/21 01:34:16;;;;;;;456.70;212.97;;;;;;;;;;4978591;28;20772;-75
2023/09/21 01:36:44;;;;;;;464.47;220.83;;;;;;;;;;4964028;28;20202;-75
2023/09/21 01:39:10;;;;;;;455.63;211.87;;;;;;;;;;4980382;28;20217;-76
2023/09/21 01:41:36;;;;;;;447.67;206.77;;;;;;;;;;4963639;28;20209;-76
2023/09/21 01:44:02;;;;;;;451.57;212.17;;;;;;;;;;4965070;28;20309;-78
2023/09/21 01:46:28;;;;;;;452.43;216.93;;;;;;;;;;4961078;28;20583;-77
2023/09/21 01:48:54;;;;;;;474.90;227.77;;;;;;;;;;4977391;28;20187;-76
2023/09/21 01:51:20;;;;;;;423.30;199.27;;;;;;;;;;4956127;28;20189;-76
2023/09/21 01:53:47;;;;;;;509.77;248.27;;;;;;;;;;4976329;28;20572;-76
2023/09/21 01:56:14;;;;;;;467.77;220.87;;;;;;;;;;4959185;28;20393;-76
2023/09/21 01:58:40;;;;;;;474.93;222.17;;;;;;;;;;4962538;28;20217;-76
2023/09/21 02:01:06;;;;;;;454.90;213.40;;;;;;;;;;4959202;28;20291;-76
2023/09/21 02:03:32;;;;;;;487.63;234.97;;;;;;;;;;4961876;28;20225;-76
2023/09/21 02:06:02;;;;;;;442.93;208.77;;;;;;;;;;4962390;28;20225;-76
2023/09/21 02:08:28;;;;;;;444.03;208.07;;;;;;;;;;4981357;28;20224;-76
2023/09/21 02:10:54;;;;;;;451.13;211.33;;;;;;;;;;4980042;28;20222;-76
2023/09/21 02:13:20;;;;;;;468.80;217.80;;;;;;;;;;4977039;28;20222;-76
2023/09/21 02:15:51;;;;;;;477.13;220.80;;;;;;;;;;4960823;28;20274;-76
2023/09/21 02:18:17;;;;;;;469.50;215.47;;;;;;;;;;4965225;28;20181;-76
2023/09/21 02:20:44;;;;;;;460.20;215.20;;;;;;;;;;4978104;28;20225;-76
2023/09/21 02:23:11;;;;;;;464.30;221.97;;;;;;;;;;4977174;28;20248;-76
2023/09/21 02:25:40;;;;;;;479.57;228.83;;;;;;;;;;4976692;28;20254;-76
2023/09/21 02:28:09;;;;;;;449.30;212.83;;;;;;;;;;4964426;28;20222;-76
2023/09/21 02:30:36;;;;;;;461.87;213.20;;;;;;;;;;4959945;28;20259;-77
2023/09/21 02:33:05;;;;;;;495.40;228.27;;;;;;;;;;4962899;28;20217;-76
2023/09/21 02:35:33;;;;;;;454.97;209.43;;;;;;;;;;4958921;28;20221;-76
2023/09/21 02:37:59;;;;;;;443.57;202.03;;;;;;;;;;4977144;28;20231;-76
2023/09/21 02:40:25;;;;;;;451.20;206.33;;;;;;;;;;4979019;28;20652;-76
2023/09/21 02:42:52;;;;;;;438.27;207.63;;;;;;;;;;4977254;28;21815;-76
2023/09/21 02:45:18;;;;;;;445.70;206.37;;;;;;;;;;4961719;28;20221;-76
2023/09/21 02:47:45;;;;;;;441.87;204.93;;;;;;;;;;4976065;28;20244;-76
2023/09/21 02:50:15;;;;;;;445.33;205.27;;;;;;;;;;4960577;28;20225;-76
2023/09/21 02:52:47;;;;;;;437.03;200.60;;;;;;;;;;4976382;28;20214;-76
2023/09/21 02:55:15;;;;;;;446.03;202.97;;;;;;;;;;4964069;28;20213;-75
2023/09/21 02:57:41;;;;;;;445.00;207.93;;;;;;;;;;4960514;28;20264;-76
2023/09/21 03:00:14;;;;;;;455.63;207.93;;;;;;;;;;4975737;28;20948;-76
2023/09/21 03:02:40;;;;;;;444.47;202.50;;;;;;;;;;4977312;28;20222;-76
2023/09/21 03:05:10;;;;;;;458.60;211.17;;;;;;;;;;4974982;28;20762;-76
2023/09/21 03:07:39;;;;;;;476.23;216.10;;;;;;;;;;4976856;28;20219;-76
2023/09/21 03:10:09;;;;;;;447.87;203.33;;;;;;;;;;4962391;28;20645;-76
2023/09/21 03:12:37;;;;;;;450.27;204.07;;;;;;;;;;4959576;28;20194;-76
2023/09/21 03:15:05;;;;;;;453.20;208.30;;;;;;;;;;4961849;28;20228;-76
2023/09/21 03:17:31;;;;;;;456.03;207.77;;;;;;;;;;4977324;28;20698;-76
2023/09/21 03:19:59;;;;;;;446.90;204.40;;;;;;;;;;4961175;28;20229;-77
2023/09/21 03:22:26;;;;;;;449.90;205.13;;;;;;;;;;4960587;28;20304;-76
2023/09/21 03:24:55;;;;;;;442.60;200.37;;;;;;;;;;4961239;28;20615;-76
2023/09/21 03:27:23;;;;;;;439.13;197.33;;;;;;;;;;4979180;28;20197;-76
2023/09/21 03:29:49;;;;;;;446.77;201.70;;;;;;;;;;4963513;28;20206;-76
2023/09/21 03:32:15;;;;;;;434.10;194.57;;;;;;;;;;4978194;28;20268;-76
2023/09/21 03:34:43;;;;;;;475.30;214.30;;;;;;;;;;4958395;28;20217;-76
2023/09/21 03:37:12;;;;;;;462.10;213.17;;;;;;;;;;4972557;28;20224;-76
2023/09/21 03:39:38;;;;;;;451.00;208.27;;;;;;;;;;4979669;28;20274;-76
2023/09/21 03:42:04;;;;;;;449.43;203.60;;;;;;;;;;4979524;28;20238;-76
2023/09/21 03:44:30;;;;;;;439.43;196.57;;;;;;;;;;4961607;28;20230;-76
2023/09/21 03:46:56;;;;;;;457.97;207.80;;;;;;;;;;4960222;28;20213;-76
2023/09/21 03:49:22;;;;;;;455.67;208.10;;;;;;;;;;4960474;28;20220;-76
2023/09/21 03:51:48;;;;;;;464.70;213.03;;;;;;;;;;4978214;28;20356;-76
2023/09/21 03:54:17;;;;;;;422.97;190.43;;;;;;;;;;4978296;28;20753;-76
2023/09/21 03:56:44;;;;;;;443.53;202.80;;;;;;;;;;4958094;28;21680;-76
2023/09/21 03:59:11;;;;;;;458.03;205.50;;;;;;;;;;4962800;28;20583;-76
2023/09/21 04:01:37;;;;;;;445.27;203.47;;;;;;;;;;4976029;28;20258;-75
2023/09/21 04:04:17;;;;;;;478.63;220.27;;;;;;;;;;4959006;28;20186;-75
2023/09/21 04:06:43;;;;;;;454.20;203.87;;;;;;;;;;4976345;28;20209;-76
2023/09/21 04:09:09;;;;;;;459.60;207.40;;;;;;;;;;4977341;28;20205;-76
2023/09/21 04:11:35;;;;;;;451.97;203.90;;;;;;;;;;4956100;28;20231;-75
2023/09/21 04:14:02;;;;;;;451.97;199.73;;;;;;;;;;4973537;28;20837;-77
2023/09/21 04:16:28;;;;;;;435.60;195.23;;;;;;;;;;4975758;28;20237;-75
2023/09/21 04:18:55;;;;;;;436.33;197.33;;;;;;;;;;4974470;28;20206;-75
2023/09/21 04:21:23;;;;;;;418.07;184.97;;;;;;;;;;4975902;28;20243;-74
2023/09/21 04:23:49;;;;;;;451.00;199.90;;;;;;;;;;4960748;28;20628;-74
2023/09/21 04:26:15;;;;;;;477.83;212.13;;;;;;;;;;4976224;28;20225;-75
2023/09/21 04:28:41;;;;;;;454.70;205.20;;;;;;;;;;4976894;28;20932;-75
2023/09/21 04:31:09;;;;;;;443.80;199.97;;;;;;;;;;4975694;28;20228;-75
2023/09/21 04:33:35;;;;;;;431.60;194.33;;;;;;;;;;4975971;28;20181;-76
2023/09/21 04:36:01;;;;;;;428.00;191.90;;;;;;;;;;4951468;28;20892;-75
2023/09/21 04:38:27;;;;;;;444.70;199.23;;;;;;;;;;4973884;28;20747;-75
2023/09/21 04:40:53;;;;;;;476.20;215.03;;;;;;;;;;4959724;28;20217;-75
2023/09/21 04:43:20;;;;;;;440.17;196.40;;;;;;;;;;4973358;28;20214;-75
2023/09/21 04:45:49;;;;;;;460.70;202.30;;;;;;;;;;4956719;28;20749;-76
2023/09/21 04:48:15;;;;;;;451.60;204.23;;;;;;;;;;4979447;28;20185;-76
2023/09/21 04:50:44;;;;;;;466.63;212.73;;;;;;;;;;4952430;28;20217;-75
2023/09/21 04:53:09;;;;;;;437.67;194.63;;;;;;;;;;4977849;28;20798;-75
2023/09/21 04:55:36;;;;;;;479.50;218.00;;;;;;;;;;4957853;28;20231;-76
2023/09/21 04:58:02;;;;;;;459.30;209.50;;;;;;;;;;4961311;28;20707;-75
2023/09/21 05:00:29;;;;;;;451.00;200.47;;;;;;;;;;4984191;28;20189;-76
2023/09/21 05:02:55;;;;;;;433.97;193.60;;;;;;;;;;4965204;28;20206;-75
2023/09/21 05:05:26;;;;;;;441.90;198.63;;;;;;;;;;4979771;28;21150;-76
2023/09/21 05:07:52;;;;;;;448.20;203.80;;;;;;;;;;4979561;28;20226;-76
2023/09/21 05:10:18;;;;;;;449.57;206.23;;;;;;;;;;4962835;28;20213;-75
2023/09/21 05:12:46;;;;;;;441.03;203.07;;;;;;;;;;4978804;28;20205;-76
2023/09/21 05:15:14;;;;;;;450.60;205.90;;;;;;;;;;4963810;28;20644;-74
2023/09/21 05:17:40;;;;;;;448.90;206.53;;;;;;;;;;4979330;28;20222;-74
2023/09/21 05:20:09;;;;;;;480.23;223.80;;;;;;;;;;4979590;28;20303;-74
2023/09/21 05:22:35;;;;;;;496.27;231.80;;;;;;;;;;4952389;28;20993;-73
2023/09/21 05:25:02;;;;;;;474.17;219.80;;;;;;;;;;4968090;28;20205;-73
2023/09/21 05:27:31;;;;;;;472.53;220.17;;;;;;;;;;4967093;28;20182;-73
2023/09/21 05:29:58;;;;;;;426.27;190.40;;;;;;;;;;4974288;28;20240;-73
2023/09/21 05:32:26;;;;;;;445.53;198.57;;;;;;;;;;4957415;28;20221;-73
2023/09/21 05:34:52;;;;;;;443.07;202.03;;;;;;;;;;4960982;28;20370;-70
2023/09/21 05:37:21;;;;;;;478.10;227.53;;;;;;;;;;4972010;28;20251;-71
2023/09/21 05:39:48;;;;;;;489.47;230.27;;;;;;;;;;4953699;28;20753;-70
2023/09/21 05:42:15;;;;;;;470.77;220.03;;;;;;;;;;4971863;28;20186;-68
2023/09/21 05:44:42;;;;;;;468.07;214.13;;;;;;;;;;4975918;28;20386;-71
2023/09/21 05:47:08;;;;;;;463.23;214.80;;;;;;;;;;4973936;28;20217;-70
2023/09/21 05:49:36;;;;;;;438.97;203.67;;;;;;;;;;4974396;28;22081;-65
2023/09/21 05:52:08;;;;;;;468.67;221.73;;;;;;;;;;4973340;28;20190;-68
2023/09/21 05:54:35;;;;;;;456.87;210.33;;;;;;;;;;4973407;28;20197;-67
2023/09/21 05:57:04;;;;;;;465.40;211.87;;;;;;;;;;4972235;28;20209;-68
2023/09/21 05:59:31;;;;;;;473.03;216.57;;;;;;;;;;4975689;28;20217;-67
2023/09/21 06:01:57;;;;;;;465.80;212.43;;;;;;;;;;4974593;28;20210;-69
2023/09/21 06:04:24;;;;;;;446.87;204.70;;;;;;;;;;4975832;28;20279;-69
2023/09/21 06:06:51;;;;;;;465.03;219.73;;;;;;;;;;4974885;28;20560;-68
2023/09/21 06:09:22;;;;;;;481.43;230.73;;;;;;;;;;4977118;28;20209;-65
2023/09/21 06:11:48;;;;;;;423.43;197.97;;;;;;;;;;4972838;28;20757;-69
2023/09/21 06:14:15;;;;;;;467.70;223.20;;;;;;;;;;4972749;28;20213;-67
2023/09/21 06:16:44;;;;;;;448.27;208.37;;;;;;;;;;4978824;28;20222;-66
2023/09/21 06:19:11;;;;;;;456.37;216.63;;;;;;;;;;4975888;28;20213;-66
2023/09/21 06:21:37;;;;;;;450.73;212.50;;;;;;;;;;4974812;28;20189;-66
2023/09/21 06:24:04;;;;;;;408.30;189.57;;;;;;;;;;4962869;28;20882;-62
2023/09/21 06:26:30;;;;;;;451.90;218.93;;;;;;;;;;4959220;28;20279;-63
2023/09/21 06:28:57;;;;;;;447.13;212.27;;;;;;;;;;4971386;28;20703;-62
2023/09/21 06:31:22;;;;;;;455.10;218.57;;;;;;;;;;4974590;28;20243;-63
2023/09/21 06:33:48;;;;;;;534.63;267.03;;;;;;;;;;4966607;28;20561;-62
2023/09/21 06:36:18;;;;;;;446.17;209.53;;;;;;;;;;4977593;28;20209;-62
2023/09/21 06:38:44;;;;;;;453.30;219.50;;;;;;;;;;4976553;28;20272;-64
2023/09/21 06:41:10;;;;;;;438.27;203.47;;;;;;;;;;4981692;28;20264;-63
2023/09/21 06:43:38;;;;;;;447.00;209.63;;;;;;;;;;4976627;28;20205;-63
2023/09/21 06:46:05;;;;;;;463.60;221.00;;;;;;;;;;4971283;28;20205;-62
2023/09/21 06:48:31;;;;;;;432.90;202.87;;;;;;;;;;4976448;28;20209;-63
2023/09/21 06:50:57;;;;;;;434.33;206.60;;;;;;;;;;4977224;28;20271;-63
2023/09/21 06:53:24;;;;;;;445.80;215.47;;;;;;;;;;4975171;28;20240;-63
2023/09/21 06:55:50;;;;;;;459.03;223.03;;;;;;;;;;4971051;28;20245;-63
2023/09/21 06:58:16;;;;;;;476.63;231.70;;;;;;;;;;4972340;28;20234;-62
2023/09/21 07:00:42;;;;;;;465.20;230.40;;;;;;;;;;4974791;28;20687;-63
2023/09/21 07:03:08;;;;;;;455.33;223.23;;;;;;;;;;4968304;28;20268;-63
2023/09/21 07:05:34;;;;;;;443.63;218.10;;;;;;;;;;4950951;28;20225;-62
2023/09/21 07:08:00;;;;;;;455.87;220.10;;;;;;;;;;4975910;28;20228;-63
2023/09/21 07:10:26;;;;;;;450.37;221.00;;;;;;;;;;4972934;28;20216;-63
2023/09/21 07:12:53;;;;;;;446.60;217.57;;;;;;;;;;4972875;28;20227;-63
2023/09/21 07:15:19;;;;;;;459.90;229.53;;;;;;;;;;4959281;28;20208;-64
2023/09/21 07:17:46;;;;;;;445.77;219.00;;;;;;;;;;4974014;28;20446;-64
2023/09/21 07:20:12;;;;;;;451.43;223.60;;;;;;;;;;4971108;28;20333;-64
2023/09/21 07:22:39;;;;;;;443.63;216.77;;;;;;;;;;4972209;28;20244;-64
2023/09/21 07:25:05;;;;;;;455.30;228.70;;;;;;;;;;4958581;28;20217;-64
2023/09/21 07:27:32;;;;;;;463.87;226.37;;;;;;;;;;4971236;28;21494;-64
2023/09/21 07:29:58;;;;;;;463.20;222.00;;;;;;;;;;4974119;28;20209;-75
2023/09/21 07:32:26;;;;;;;475.03;230.67;;;;;;;;;;4967880;28;20595;-73
2023/09/21 07:34:52;;;;;;;463.80;229.03;;;;;;;;;;4954649;28;20215;-69
2023/09/21 07:37:18;;;;;;;479.93;238.30;;;;;;;;;;4971245;28;20300;-69
2023/09/21 07:39:44;;;;;;;467.83;230.93;;;;;;;;;;4969168;28;20218;-69
2023/09/21 07:42:10;;;;;;;441.97;214.33;;;;;;;;;;4953533;28;20946;-69
2023/09/21 07:44:37;;;;;;;462.37;221.83;;;;;;;;;;4959036;28;20791;-69
2023/09/21 07:47:03;;;;;;;460.37;225.53;;;;;;;;;;4973954;28;20250;-69
2023/09/21 07:49:29;;;;;;;504.37;254.83;;;;;;;;;;4967876;28;20240;-69
2023/09/21 07:51:55;;;;;;;443.53;217.70;;;;;;;;;;4977226;28;20249;-69
2023/09/21 07:54:21;;;;;;;482.53;241.80;;;;;;;;;;4963489;28;20185;-69
2023/09/21 07:56:47;;;;;;;462.83;229.37;;;;;;;;;;4971750;28;20624;-70
2023/09/21 07:59:13;;;;;;;456.87;230.13;;;;;;;;;;4958738;28;20283;-70
2023/09/21 08:01:40;;;;;;;462.80;232.83;;;;;;;;;;4971404;28;20300;-69
2023/09/21 08:04:07;;;;;;;456.47;224.77;;;;;;;;;;4957520;28;20757;-68
2023/09/21 08:06:33;;;;;;;469.23;241.20;;;;;;;;;;4971039;28;20896;-69
2023/09/21 08:08:59;;;;;;;448.47;228.80;;;;;;;;;;4956697;28;20221;-69
2023/09/21 08:11:25;;;;;;;487.57;253.80;;;;;;;;;;4966923;28;20213;-69
2023/09/21 08:13:50;;;;;;;488.37;257.90;;;;;;;;;;4969690;28;20525;-69
2023/09/21 08:16:16;;;;;;;460.50;240.50;;;;;;;;;;4972664;28;20213;-69
2023/09/21 08:18:42;;;;;;;497.33;263.37;;;;;;;;;;4969676;28;20660;-69
2023/09/21 08:21:10;;;;;;;447.90;234.93;;;;;;;;;;4974573;28;20217;-69
2023/09/21 08:23:36;;;;;;;475.50;247.20;;;;;;;;;;4968048;28;20213;-70
2023/09/21 08:26:03;;;;;;;475.90;253.00;;;;;;;;;;4954026;28;20229;-69
2023/09/21 08:28:29;;;;;;;511.57;274.87;;;;;;;;;;4972587;28;20351;-69
2023/09/21 08:30:55;;;;;;;474.90;255.87;;;;;;;;;;4970541;28;20218;-69
2023/09/21 08:33:22;;;;;;;474.87;259.10;;;;;;;;;;4972804;28;20190;-69
2023/09/21 08:35:48;;;;;;;477.50;262.47;;;;;;;;;;4956120;28;20216;-69
2023/09/21 08:38:14;;;;;;;479.97;263.07;;;;;;;;;;4956562;28;20283;-69
2023/09/21 08:40:43;;;;;;;525.60;294.27;;;;;;;;;;4952753;28;20599;-70
2023/09/21 08:43:14;;;;;;;461.27;261.90;;;;;;;;;;4956336;28;20698;-69
2023/09/21 08:45:40;;;;;;;470.37;261.80;;;;;;;;;;4969938;28;20879;-69
2023/09/21 08:48:07;;;;;;;496.97;281.77;;;;;;;;;;4968037;28;20217;-70
2023/09/21 08:50:34;;;;;;;499.17;280.30;;;;;;;;;;4968649;28;20631;-69
2023/09/21 08:53:01;;;;;;;477.13;266.63;;;;;;;;;;4967333;28;20240;-69
2023/09/21 08:55:27;;;;;;;489.30;276.40;;;;;;;;;;4955801;28;20222;-67
2023/09/21 08:57:54;;;;;;;480.93;267.87;;;;;;;;;;4973579;28;20189;-69
2023/09/21 09:00:21;;;;;;;477.50;276.23;;;;;;;;;;4967887;28;20182;-70
2023/09/21 09:02:48;;;;;;;492.83;283.03;;;;;;;;;;4971009;28;20214;-69
2023/09/21 09:05:14;;;;;;;471.23;271.20;;;;;;;;;;4970287;28;20257;-70
2023/09/21 09:07:41;;;;;;;483.90;283.75;;;;;;;;;;4970463;28;20229;-69
2023/09/21 09:10:12;;;;;;;476.93;272.87;;;;;;;;;;4969047;28;20291;-70
2023/09/21 09:12:39;;;;;;;492.13;291.77;;;;;;;;;;4969259;28;20260;-69
2023/09/21 09:15:06;;;;;;;466.27;268.93;;;;;;;;;;4949672;28;20245;-69
2023/09/21 09:17:35;;;;;;;510.83;308.37;;;;;;;;;;4955438;28;20272;-69
2023/09/21 09:20:03;;;;;;;468.40;278.17;;;;;;;;;;4967676;28;20660;-70
2023/09/21 09:22:31;;;;;;;481.10;288.17;;;;;;;;;;4955206;28;20225;-70
2023/09/21 09:24:58;;;;;;;464.73;284.10;;;;;;;;;;4973380;28;20210;-69
2023/09/21 09:27:24;;;;;;;485.00;293.37;;;;;;;;;;4953444;28;20186;-69
2023/09/21 09:29:53;;;;;;;491.67;301.40;;;;;;;;;;4969617;28;20271;-69
2023/09/21 09:32:19;;;;;;;464.10;279.93;;;;;;;;;;4970821;28;20267;-69
2023/09/21 09:34:48;;;;;;;489.13;292.53;;;;;;;;;;4954881;28;20742;-70
2023/09/21 09:37:15;;;;;;;463.47;277.00;;;;;;;;;;4975380;28;20237;-70
2023/09/21 09:39:44;;;;;;;466.03;280.90;;;;;;;;;;4972964;28;20272;-69
2023/09/21 09:42:11;;;;;;;474.47;288.87;;;;;;;;;;4971085;28;20308;-70
2023/09/21 09:44:45;;;;;;;473.43;284.93;;;;;;;;;;4974212;28;20707;-69
2023/09/21 09:47:12;;;;;;;467.70;285.40;;;;;;;;;;4980520;28;20226;-69
2023/09/21 09:49:40;;;;;;;419.53;272.00;;;;;;;;;;4960642;28;20588;-68
2023/09/21 09:52:09;;;;;;;397.80;260.00;;;;;;;;;;4982590;28;20264;-69
2023/09/21 09:54:35;;;;;;;;;;;;;;;;;;4980407;28;20226;-68
2023/09/21 09:57:01;;;;;;;394.60;254.55;;;;;;;;;;4981906;28;25073;-68
2023/09/21 09:59:28;;;;;;;391.20;261.30;;;;;;;;;;4980991;28;25098;-69
2023/09/21 10:01:55;;;;;;;385.53;250.83;;;;;;;;;;4963707;28;20232;-69
2023/09/21 10:04:21;;;;;;;389.80;260.95;;;;;;;;;;4985494;28;20221;-69
2023/09/21 10:06:48;;;;;;;385.00;249.90;;;;;;;;;;4982350;28;20252;-69
2023/09/21 10:09:15;;;;;;;394.67;258.53;;;;;;;;;;4984603;28;20826;-69
2023/09/21 10:11:44;;;;;;;412.55;270.15;;;;;;;;;;4973519;28;20368;-69
2023/09/21 10:14:12;;;;;;;442.87;288.17;;;;;;;;;;4981858;28;20220;-69
2023/09/21 10:16:49;;;;;;;419.83;280.83;;;;;;;;;;4980250;28;20854;-69
2023/09/21 10:19:18;;;;;;;381.23;257.07;;;;;;;;;;4977463;28;20326;-69
2023/09/21 10:21:45;;;;;;;411.73;269.67;;;;;;;;;;4978718;28;20193;-69
2023/09/21 10:24:16;;;;;;;379.77;255.97;;;;;;;;;;4974624;28;20241;-69
2023/09/21 10:27:03;;;;;;;411.30;277.10;;;;;;;;;;4978243;28;20222;-69
2023/09/21 10:29:33;;;;;;;412.63;274.67;;;;;;;;;;4976760;28;20214;-69
2023/09/21 10:32:03;;;;;;;395.63;271.63;;;;;;;;;;4976609;28;20210;-69
2023/09/21 10:34:29;;;;;;;404.63;279.73;;;;;;;;;;4968000;28;20217;-69
2023/09/21 10:37:01;;;;;;;393.33;277.17;;;;;;;;;;4976658;28;20213;-69
2023/09/21 10:39:30;;;;;;;410.13;283.77;;;;;;;;;;4978327;28;20205;-69
2023/09/21 10:42:17;;;;;;;525.50;339.37;;;;;;;;;;4970515;28;20244;-69
2023/09/21 10:45:07;;;;;;;506.37;324.37;;;;;;;;;;4945847;28;20241;-69
2023/09/21 10:47:47;;;;;;;526.90;337.03;;;;;;;;;;4957021;28;20209;-70
2023/09/21 10:50:14;;;;;;;499.40;322.93;;;;;;;;;;4972693;28;20205;-70
2023/09/21 10:52:44;;;;;;;506.37;328.33;;;;;;;;;;4950866;28;21096;-70
2023/09/21 10:55:12;;;;;;;486.83;326.87;;;;;;;;;;4973664;28;20757;-70
2023/09/21 10:57:38;;;;;;;489.50;329.30;;;;;;;;;;4968667;28;20177;-71
2023/09/21 11:00:08;;;;;;;498.17;334.97;;;;;;;;;;4973271;28;20205;-70
2023/09/21 11:02:40;;;;;;;549.70;368.93;;;;;;;;;;4967617;28;20221;-70
2023/09/21 11:05:07;;;;;;;492.50;338.03;;;;;;;;;;4954084;28;20691;-69
2023/09/21 11:07:34;;;;;;;523.27;362.50;;;;;;;;;;4973543;28;20213;-70
2023/09/21 11:10:00;;;;;;;481.83;338.40;;;;;;;;;;4971309;28;20182;-69
2023/09/21 11:12:26;;;;;;;508.20;352.37;;;;;;;;;;4971029;28;20202;-70
2023/09/21 11:14:52;;;;;;;467.13;326.73;;;;;;;;;;4972382;28;20214;-69
2023/09/21 11:17:18;;;;;;;483.07;335.37;;;;;;;;;;4972503;28;20283;-69
2023/09/21 11:19:45;;;;;;;486.73;338.80;;;;;;;;;;4975493;28;20213;-68
2023/09/21 11:22:12;;;;;;;506.77;349.97;;;;;;;;;;4969830;28;20209;-69
2023/09/21 11:24:38;;;;;;;495.93;350.57;;;;;;;;;;4957664;28;20178;-69
2023/09/21 11:27:06;;;;;;;455.70;327.43;;;;;;;;;;4956632;28;20639;-68
2023/09/21 11:29:33;;;;;;;496.50;346.70;;;;;;;;;;4970902;28;20264;-67
2023/09/21 11:32:00;;;;;;;465.37;339.10;;;;;;;;;;4971605;28;20202;-68
2023/09/21 11:34:26;;;;;;;475.73;336.17;;;;;;;;;;4976457;28;20237;-68
2023/09/21 11:36:52;;;;;;;461.27;338.03;;;;;;;;;;4964121;28;20692;-68
2023/09/21 11:39:22;;;;;;;473.80;342.17;;;;;;;;;;4977281;28;20193;-67
2023/09/21 11:41:49;;;;;;;487.50;357.77;;;;;;;;;;4971847;28;20218;-68
2023/09/21 11:44:17;;;;;;;478.10;353.37;;;;;;;;;;4953597;28;20313;-68
2023/09/21 11:46:44;;;;;;;502.60;375.00;;;;;;;;;;4957066;28;20771;-68
2023/09/21 11:49:10;;;;;;;481.17;357.13;;;;;;;;;;4972254;28;20217;-67
2023/09/21 11:51:36;;;;;;;495.97;373.90;;;;;;;;;;4975297;28;20213;-68
2023/09/21 11:54:04;;;;;;;488.80;360.60;;;;;;;;;;4958899;28;20321;-68
2023/09/21 11:56:30;;;;;;;469.10;360.10;;;;;;;;;;4960474;28;20295;-68
2023/09/21 11:58:58;;;;;;;471.60;363.97;;;;;;;;;;4974316;28;20809;-67
2023/09/21 12:01:27;;;;;;;498.03;379.07;;;;;;;;;;4954061;28;20339;-67
2023/09/21 12:03:53;;;;;;;480.73;371.90;;;;;;;;;;4972069;28;20186;-67
2023/09/21 12:06:20;;;;;;;473.77;366.03;;;;;;;;;;4974533;28;20631;-68
2023/09/21 12:08:46;;;;;;;492.03;385.27;;;;;;;;;;4973498;28;20213;-67
2023/09/21 12:11:12;;;;;;;477.53;369.70;;;;;;;;;;4975545;28;20213;-67
2023/09/21 12:13:38;;;;;;;512.70;388.83;;;;;;;;;;4970682;28;20217;-68
2023/09/21 12:16:06;;;;;;;471.20;366.00;;;;;;;;;;4974511;28;20210;-68
2023/09/21 12:18:33;;;;;;;486.03;384.83;;;;;;;;;;4954423;28;20194;-67
2023/09/21 12:21:00;;;;;;;472.80;371.60;;;;;;;;;;4969616;28;20491;-68
2023/09/21 12:23:26;;;;;;;500.90;387.50;;;;;;;;;;4973502;28;20217;-68
2023/09/21 12:25:53;;;;;;;534.50;423.17;;;;;;;;;;4955089;28;20327;-68
2023/09/21 12:28:19;;;;;;;476.63;375.97;;;;;;;;;;4971531;28;20225;-69
2023/09/21 12:30:47;;;;;;;509.10;413.80;;;;;;;;;;4974245;28;20193;-69
2023/09/21 12:33:15;;;;;;;509.60;402.30;;;;;;;;;;4955067;28;20212;-69
2023/09/21 12:35:41;;;;;;;526.40;408.23;;;;;;;;;;4973027;28;20225;-68
2023/09/21 12:38:06;;;;;;;482.53;384.70;;;;;;;;;;4970192;28;20225;-68
2023/09/21 12:40:32;;;;;;;512.13;409.23;;;;;;;;;;4955030;28;20221;-69
2023/09/21 12:42:59;;;;;;;498.60;406.37;;;;;;;;;;4968427;28;20216;-69
2023/09/21 12:45:25;;;;;;;497.10;393.13;;;;;;;;;;4954572;28;20312;-70
2023/09/21 12:47:51;;;;;;;534.13;429.70;;;;;;;;;;4971784;28;20305;-69
2023/09/21 12:50:17;;;;;;;483.80;390.17;;;;;;;;;;4967830;28;20687;-69
2023/09/21 12:52:43;;;;;;;515.17;403.70;;;;;;;;;;4971417;28;20707;-68
2023/09/21 12:55:10;;;;;;;515.43;420.27;;;;;;;;;;4970370;28;20232;-67
2023/09/21 12:57:37;;;;;;;504.43;405.77;;;;;;;;;;4961519;28;20213;-68
2023/09/21 13:00:22;;;;;;;497.33;416.67;;;;;;;;;;4972786;28;20241;-68
2023/09/21 13:02:48;;;;;;;497.27;400.93;;;;;;;;;;4949922;28;20707;-68
2023/09/21 13:05:15;;;;;;;553.07;452.20;;;;;;;;;;4963759;28;20854;-69
2023/09/21 13:07:44;;;;;;;500.00;421.30;;;;;;;;;;4972887;28;20209;-68
2023/09/21 13:10:11;;;;;;;483.83;408.57;;;;;;;;;;4974877;28;20214;-69
2023/09/21 13:12:38;;;;;;;495.07;416.37;;;;;;;;;;4977763;28;20284;-68
2023/09/21 13:15:04;;;;;;;514.07;442.63;;;;;;;;;;4971775;28;20217;-68
2023/09/21 13:17:31;;;;;;;505.47;434.87;;;;;;;;;;4971277;28;20735;-67
2023/09/21 13:19:57;;;;;;;572.13;475.80;;;;;;;;;;4952691;28;20620;-68
2023/09/21 13:22:23;;;;;;;516.23;430.43;;;;;;;;;;4975985;28;20230;-67
2023/09/21 13:24:49;;;;;;;509.93;437.20;;;;;;;;;;4978425;28;20185;-67
2023/09/21 13:27:15;;;;;;;502.10;435.60;;;;;;;;;;4975321;28;20220;-67
2023/09/21 13:29:41;;;;;;;523.33;466.40;;;;;;;;;;4970932;28;20313;-68
2023/09/21 13:32:11;;;;;;;516.83;460.63;;;;;;;;;;4953720;28;25058;-68
2023/09/21 13:34:37;;;;;;;515.83;459.17;;;;;;;;;;4973406;28;20217;-68
2023/09/21 13:37:04;;;;;;;538.53;482.60;;;;;;;;;;4958923;28;20201;-67
2023/09/21 13:39:31;;;;;;;540.77;482.97;;;;;;;;;;4956623;28;20280;-68
2023/09/21 13:41:57;;;;;;;533.43;478.67;;;;;;;;;;4973120;28;20276;-68
2023/09/21 13:44:23;;;;;;;571.88;513.38;;;;;;;;;;4973974;28;20690;-68
2023/09/21 13:46:51;;;;;;;617.65;558.75;;;;;;;;;;4980674;28;20224;-68
2023/09/21 13:49:16;;;;;;;636.35;572.05;;;;;;;;;;4972976;28;21007;-68
2023/09/21 13:51:43;;;;;;;608.00;550.33;;;;;;;;;;4971482;28;20198;-68
2023/09/21 13:54:09;;;;;;;654.33;595.47;;;;;;;;;;4973501;28;20304;-68
2023/09/21 13:56:35;;;;;;;630.30;573.72;;;;;;;;;;4971439;28;20228;-68